createdAt,value
2022-10-05T00:03:50.942Z,83
2022-10-05T00:08:51.385Z,83
2022-10-05T00:13:51.000Z,83
2022-10-05T00:18:51.236Z,82
2022-10-05T00:23:50.869Z,82
2022-10-05T00:28:51.253Z,82
2022-10-05T00:33:51.067Z,82
2022-10-05T00:38:51.434Z,82
2022-10-05T00:43:51.036Z,82
2022-10-05T00:48:51.312Z,82
2022-10-05T00:53:50.720Z,82
2022-10-05T00:58:51.150Z,82
2022-10-05T01:03:50.921Z,82
2022-10-05T01:08:51.406Z,82
2022-10-05T01:13:51.090Z,82
2022-10-05T01:18:50.542Z,82
2022-10-05T01:23:51.034Z,82
2022-10-05T01:28:51.456Z,82
2022-10-05T01:33:50.933Z,82
2022-10-05T01:38:50.640Z,82
2022-10-05T01:43:51.107Z,82
2022-10-05T01:48:51.387Z,82
2022-10-05T01:53:50.689Z,82
2022-10-05T01:58:51.110Z,82
2022-10-05T02:03:51.507Z,82
2022-10-05T02:08:51.006Z,82
2022-10-05T02:13:51.455Z,82
2022-10-05T02:18:50.712Z,82
2022-10-05T02:23:50.953Z,82
2022-10-05T02:28:51.182Z,82
2022-10-05T02:33:51.510Z,82
2022-10-05T02:38:51.009Z,83
2022-10-05T02:43:51.392Z,83
2022-10-05T02:48:51.176Z,83
2022-10-05T02:53:50.704Z,83
2022-10-05T02:58:51.486Z,83
2022-10-05T03:03:50.943Z,83
2022-10-05T03:08:51.720Z,83
2022-10-05T03:13:51.418Z,83
2022-10-05T03:18:51.041Z,83
2022-10-05T03:23:50.680Z,83
2022-10-05T03:28:51.191Z,84
2022-10-05T03:33:51.063Z,84
2022-10-05T03:38:50.913Z,84
2022-10-05T03:43:51.660Z,84
2022-10-05T03:48:50.863Z,84
2022-10-05T03:53:51.215Z,84
2022-10-05T03:58:51.729Z,84
2022-10-05T04:03:51.521Z,84
2022-10-05T04:08:50.933Z,84
2022-10-05T04:13:51.565Z,84
2022-10-05T04:18:51.339Z,84
2022-10-05T04:23:51.189Z,84
2022-10-05T04:28:51.713Z,84
2022-10-05T04:33:51.126Z,84
2022-10-05T04:38:51.530Z,85
2022-10-05T04:43:51.026Z,85
2022-10-05T04:48:51.269Z,85
2022-10-05T04:53:50.872Z,85
2022-10-05T04:58:51.220Z,85
2022-10-05T05:03:51.918Z,85
2022-10-05T05:08:51.176Z,85
2022-10-05T05:13:50.880Z,85
2022-10-05T05:18:50.894Z,85
2022-10-05T05:23:51.049Z,85
2022-10-05T05:28:51.343Z,85
2022-10-05T05:33:50.858Z,85
2022-10-05T05:38:51.136Z,86
2022-10-05T05:43:51.476Z,86
2022-10-05T05:48:50.891Z,86
2022-10-05T05:53:51.279Z,86
2022-10-05T05:58:50.929Z,86
2022-10-05T06:03:51.662Z,86
2022-10-05T06:08:51.248Z,86
2022-10-05T06:13:51.872Z,86
2022-10-05T06:18:51.089Z,87
2022-10-05T06:23:51.494Z,87
2022-10-05T06:28:50.858Z,86
2022-10-05T06:33:51.301Z,86
2022-10-05T06:38:51.671Z,86
2022-10-05T06:43:51.138Z,86
2022-10-05T06:48:51.470Z,86
2022-10-05T06:53:51.036Z,86
2022-10-05T06:58:51.316Z,87
2022-10-05T07:03:50.937Z,87
2022-10-05T07:08:51.311Z,86
2022-10-05T07:13:51.641Z,86
2022-10-05T07:18:51.023Z,86
2022-10-05T07:23:51.492Z,86
2022-10-05T07:28:51.780Z,86
2022-10-05T07:33:51.172Z,86
2022-10-05T07:38:51.370Z,86
2022-10-05T07:44:03.803Z,86
2022-10-05T07:48:51.701Z,86
2022-10-05T07:53:50.990Z,86
2022-10-05T07:58:51.762Z,86
2022-10-05T08:03:51.217Z,86
2022-10-05T08:08:51.592Z,86
2022-10-05T08:13:51.005Z,86
2022-10-05T08:18:51.252Z,86
2022-10-05T08:23:51.612Z,86
2022-10-05T08:28:50.894Z,86
2022-10-05T08:33:51.190Z,86
2022-10-05T08:38:51.634Z,85
2022-10-05T08:43:50.993Z,85
2022-10-05T08:48:51.472Z,85
2022-10-05T08:53:51.211Z,85
2022-10-05T08:58:52.080Z,84
2022-10-05T09:03:50.999Z,84
2022-10-05T09:08:51.599Z,84
2022-10-05T09:13:51.644Z,84
2022-10-05T09:18:51.063Z,84
2022-10-05T09:23:51.786Z,84
2022-10-05T09:28:51.236Z,83
2022-10-05T09:33:51.144Z,83
2022-10-05T09:38:51.833Z,80
2022-10-05T09:43:51.318Z,80
2022-10-05T09:48:51.466Z,80
2022-10-05T09:53:51.272Z,80
2022-10-05T09:58:50.912Z,80
2022-10-05T10:03:51.550Z,80
2022-10-05T10:08:52.100Z,80
2022-10-05T10:13:51.670Z,80
2022-10-05T10:18:51.256Z,80
2022-10-05T10:23:51.540Z,80
2022-10-05T10:28:51.152Z,80
2022-10-05T10:33:51.999Z,80
2022-10-05T10:38:51.564Z,81
2022-10-05T10:43:51.066Z,81
2022-10-05T10:48:51.389Z,81
2022-10-05T10:53:51.894Z,81
2022-10-05T10:58:51.663Z,81
2022-10-05T11:03:51.011Z,81
2022-10-05T11:08:51.481Z,80
2022-10-05T11:13:51.387Z,80
2022-10-05T11:18:51.944Z,81
2022-10-05T11:23:51.323Z,81
2022-10-05T11:28:51.841Z,81
2022-10-05T11:33:51.293Z,81
2022-10-05T11:38:51.718Z,80
2022-10-05T11:43:51.250Z,80
2022-10-05T11:48:51.490Z,80
2022-10-05T11:53:51.014Z,80
2022-10-05T11:58:51.637Z,80
2022-10-05T12:03:52.370Z,80
2022-10-05T12:08:51.821Z,80
2022-10-05T12:13:51.043Z,80
2022-10-05T12:18:51.339Z,79
2022-10-05T12:23:51.965Z,79
2022-10-05T12:28:51.229Z,78
2022-10-05T12:33:51.764Z,78
2022-10-05T12:38:51.179Z,77
2022-10-05T12:43:51.996Z,77
2022-10-05T12:48:51.338Z,77
2022-10-05T12:53:51.557Z,77
2022-10-05T12:58:52.082Z,77
2022-10-05T13:03:51.681Z,77
2022-10-05T13:08:52.087Z,77
2022-10-05T13:13:51.206Z,77
2022-10-05T13:18:51.703Z,76
2022-10-05T13:23:57.663Z,76
2022-10-05T13:28:51.121Z,77
2022-10-05T13:33:51.360Z,77
2022-10-05T13:38:51.021Z,77
2022-10-05T13:43:51.795Z,77
2022-10-05T13:48:51.189Z,77
2022-10-05T13:53:51.545Z,77
2022-10-05T13:58:51.874Z,77
2022-10-05T14:03:51.335Z,77
2022-10-05T14:08:51.803Z,77
2022-10-05T14:13:51.150Z,77
2022-10-05T14:18:51.426Z,77
2022-10-05T14:23:51.818Z,77
2022-10-05T14:28:51.157Z,78
2022-10-05T14:33:51.856Z,78
2022-10-05T14:38:51.201Z,78
2022-10-05T14:43:51.218Z,78
2022-10-05T14:48:51.855Z,78
2022-10-05T14:53:51.198Z,78
2022-10-05T14:58:51.450Z,79
2022-10-05T15:03:51.055Z,79
2022-10-05T15:08:51.837Z,79
2022-10-05T15:13:51.582Z,79
2022-10-05T15:18:51.494Z,79
2022-10-05T15:23:51.388Z,79
2022-10-05T15:28:51.996Z,79
2022-10-05T15:33:52.050Z,79
2022-10-05T15:38:51.799Z,80
2022-10-05T15:43:51.911Z,80
2022-10-05T15:48:51.422Z,80
2022-10-05T15:53:51.166Z,80
2022-10-05T15:58:51.864Z,80
2022-10-05T16:03:51.576Z,80
2022-10-05T16:08:52.070Z,80
2022-10-05T16:13:51.323Z,80
2022-10-05T16:18:52.106Z,80
2022-10-05T16:23:51.210Z,80
2022-10-05T16:28:51.974Z,79
2022-10-05T16:33:51.337Z,79
2022-10-05T16:38:51.891Z,80
2022-10-05T16:43:51.612Z,80
2022-10-05T16:48:52.056Z,81
2022-10-05T16:53:51.711Z,81
2022-10-05T16:58:51.365Z,82
2022-10-05T17:03:51.843Z,82
2022-10-05T17:08:52.127Z,82
2022-10-05T17:13:51.758Z,82
2022-10-05T17:18:51.221Z,81
2022-10-05T17:23:51.811Z,81
2022-10-05T17:28:52.018Z,81
2022-10-05T17:33:51.413Z,81
2022-10-05T17:38:51.742Z,82
2022-10-05T17:43:51.131Z,82
2022-10-05T17:48:51.428Z,82
2022-10-05T17:53:52.188Z,82
2022-10-05T17:58:51.629Z,82
2022-10-05T18:03:52.164Z,82
2022-10-05T18:08:51.749Z,82
2022-10-05T18:13:52.133Z,82
2022-10-05T18:18:51.299Z,82
2022-10-05T18:23:51.646Z,82
2022-10-05T18:28:52.178Z,82
2022-10-05T18:33:51.502Z,82
2022-10-05T18:38:51.768Z,81
2022-10-05T18:43:52.132Z,81
2022-10-05T18:48:51.405Z,80
2022-10-05T18:53:51.761Z,80
2022-10-05T18:58:57.221Z,79
2022-10-05T19:03:51.437Z,79
2022-10-05T19:08:52.139Z,79
2022-10-05T19:13:51.403Z,79
2022-10-05T19:18:51.616Z,79
2022-10-05T19:23:51.383Z,79
2022-10-05T19:28:51.852Z,80
2022-10-05T19:33:51.283Z,80
2022-10-05T19:38:51.594Z,79
2022-10-05T19:43:51.557Z,79
2022-10-05T19:48:52.241Z,79
2022-10-05T19:53:51.387Z,79
2022-10-05T19:58:51.672Z,79
2022-10-05T20:03:51.853Z,79
2022-10-05T20:08:52.212Z,78
2022-10-05T20:13:51.913Z,78
2022-10-05T20:18:51.324Z,78
2022-10-05T20:23:51.754Z,78
2022-10-05T20:28:52.194Z,79
2022-10-05T20:33:51.741Z,79
2022-10-05T20:38:52.090Z,79
2022-10-05T20:43:51.461Z,79
2022-10-05T20:48:52.036Z,79
2022-10-05T20:53:51.284Z,79
2022-10-05T20:58:51.437Z,80
2022-10-05T21:03:52.194Z,80
2022-10-05T21:09:02.609Z,80
2022-10-05T21:13:51.996Z,80
2022-10-05T21:18:52.295Z,79
2022-10-05T21:23:51.957Z,79
2022-10-05T21:28:51.506Z,80
2022-10-05T21:33:52.308Z,80
2022-10-05T21:38:51.607Z,80
2022-10-05T21:43:52.144Z,80
2022-10-05T21:48:51.439Z,80
2022-10-05T21:53:51.687Z,80
2022-10-05T21:58:52.082Z,80
2022-10-05T22:03:51.849Z,80
2022-10-05T22:08:51.660Z,80
2022-10-05T22:13:52.236Z,80
2022-10-05T22:18:51.637Z,80
2022-10-05T22:23:52.337Z,80
2022-10-05T22:28:51.719Z,79
2022-10-05T22:33:52.264Z,79
2022-10-05T22:38:51.663Z,78
2022-10-05T22:43:52.148Z,78
2022-10-05T22:48:51.613Z,78
2022-10-05T22:53:52.219Z,78
2022-10-05T22:58:52.501Z,80
2022-10-05T23:03:51.961Z,80
2022-10-05T23:08:51.585Z,84
2022-10-05T23:13:52.224Z,84
2022-10-05T23:18:51.933Z,86
2022-10-05T23:23:52.388Z,86
2022-10-05T23:28:51.651Z,86
2022-10-05T23:33:51.945Z,86
2022-10-05T23:38:52.420Z,86
2022-10-05T23:43:51.879Z,86
2022-10-05T23:48:52.233Z,86
2022-10-05T23:53:51.507Z,86
2022-10-05T23:58:51.892Z,85
